Time;durP1;ratioP1;P1;durP2;ratioP2;P2;SDS_P1;SDS_P2;PMS_P1;PMS_P2;Temp;Humidity;BMP_temperature;BMP_pressure;BME280_temperature;BME280_humidity;BME280_pressure;Samples;Min_cycle;Max_cycle;Signal;HPM_P1;HPM_P2
2023/02/02 00:01:24;;;;;;;42.63;5.60;;;5.60;99.90;;;;;;5052952;28;20029;-72
2023/02/02 00:03:50;;;;;;;46.30;5.95;;;5.60;99.90;;;;;;5053007;28;20025;-72
2023/02/02 00:06:18;;;;;;;45.75;7.28;;;5.50;99.90;;;;;;5052891;28;20029;-73
2023/02/02 00:08:43;;;;;;;52.13;6.47;;;5.50;99.90;;;;;;5052963;28;20364;-72
2023/02/02 00:11:09;;;;;;;43.70;6.00;;;5.60;99.90;;;;;;5053374;28;20025;-72
2023/02/02 00:13:34;;;;;;;43.10;6.05;;;5.60;99.90;;;;;;5052870;28;20057;-73
2023/02/02 00:16:33;;;;;;;36.78;4.80;;;5.60;99.90;;;;;;5052647;28;20079;-72
2023/02/02 00:19:03;;;;;;;44.95;5.90;;;5.60;99.90;;;;;;5052808;28;20013;-73
2023/02/02 00:21:29;;;;;;;38.97;7.55;;;5.60;99.90;;;;;;5052994;28;20025;-73
2023/02/02 00:23:54;;;;;;;43.38;4.88;;;5.50;99.90;;;;;;5065091;28;20058;-72
2023/02/02 00:26:20;;;;;;;40.63;5.07;;;5.50;99.90;;;;;;5061253;28;20040;-73
2023/02/02 00:28:47;;;;;;;44.45;6.10;;;5.50;99.90;;;;;;5051923;28;20045;-73
2023/02/02 00:31:12;;;;;;;51.03;6.05;;;5.40;99.90;;;;;;5053306;28;20021;-73
2023/02/02 00:33:38;;;;;;;49.67;5.47;;;5.40;99.90;;;;;;5052686;28;20029;-73
2023/02/02 00:36:04;;;;;;;42.25;5.13;;;5.40;99.90;;;;;;5052596;28;20041;-73
2023/02/02 00:38:31;;;;;;;35.70;5.05;;;5.40;99.90;;;;;;5053179;28;20057;-73
2023/02/02 00:40:56;;;;;;;39.47;5.47;;;5.40;99.90;;;;;;5053441;28;20025;-73
2023/02/02 00:43:22;;;;;;;46.53;5.60;;;5.30;99.90;;;;;;5052626;28;20059;-73
2023/02/02 00:45:48;;;;;;;56.47;5.95;;;5.30;99.90;;;;;;5052407;28;20029;-72
2023/02/02 00:48:14;;;;;;;51.13;5.25;;;5.30;99.90;;;;;;5052859;28;20075;-73
2023/02/02 00:50:39;;;;;;;44.55;6.20;;;5.20;99.90;;;;;;5052647;28;20449;-73
2023/02/02 00:53:05;;;;;;;51.75;8.15;;;5.20;99.90;;;;;;5052584;28;20463;-72
2023/02/02 00:55:30;;;;;;;46.78;5.60;;;5.20;99.90;;;;;;5054110;28;20483;-73
2023/02/02 00:57:56;;;;;;;55.45;6.60;;;5.30;99.90;;;;;;5054263;28;20029;-73
2023/02/02 01:00:24;;;;;;;45.03;7.00;;;5.20;99.90;;;;;;5055605;28;20475;-73
2023/02/02 01:02:50;;;;;;;48.40;6.25;;;5.10;99.90;;;;;;5056327;28;20025;-73
2023/02/02 01:05:16;;;;;;;44.60;5.40;;;5.10;99.90;;;;;;5056303;28;20032;-73
2023/02/02 01:07:42;;;;;;;50.35;6.57;;;5.10;99.90;;;;;;5056032;28;20020;-73
2023/02/02 01:10:14;;;;;;;44.75;4.78;;;5.10;99.90;;;;;;5056269;28;20025;-72
2023/02/02 01:12:41;;;;;;;36.70;6.20;;;5.10;99.90;;;;;;5056715;28;20376;-73
2023/02/02 01:15:07;;;;;;;55.65;5.68;;;5.10;99.90;;;;;;5055834;28;20115;-74
2023/02/02 01:17:33;;;;;;;48.22;5.82;;;5.10;99.90;;;;;;5055903;28;20051;-73
2023/02/02 01:19:58;;;;;;;55.72;6.95;;;5.10;99.90;;;;;;5056400;28;20033;-73
2023/02/02 01:22:24;;;;;;;47.83;6.72;;;5.20;99.90;;;;;;5055920;28;20099;-73
2023/02/02 01:24:50;;;;;;;54.53;6.68;;;5.20;99.90;;;;;;5071077;28;20033;-73
2023/02/02 01:27:16;;;;;;;48.95;6.35;;;5.20;99.90;;;;;;5055985;28;20070;-73
2023/02/02 01:29:42;;;;;;;45.13;5.35;;;5.10;99.90;;;;;;5055629;28;20438;-73
2023/02/02 01:32:07;;;;;;;51.33;6.13;;;5.00;99.90;;;;;;5055401;28;20074;-73
2023/02/02 01:34:33;;;;;;;56.55;7.13;;;5.00;99.90;;;;;;5055393;28;20475;-72
2023/02/02 01:36:58;;;;;;;39.55;5.50;;;4.90;99.90;;;;;;5055709;28;20025;-73
2023/02/02 01:39:24;;;;;;;52.22;6.82;;;4.90;99.90;;;;;;5055670;28;20472;-73
2023/02/02 01:41:50;;;;;;;66.90;6.85;;;4.70;99.90;;;;;;5055811;28;20033;-72
2023/02/02 01:44:53;;;;;;;44.15;5.07;;;4.70;99.90;;;;;;5055293;28;20025;-72
2023/02/02 01:47:21;;;;;;;57.50;7.15;;;4.60;99.90;;;;;;5055477;28;20453;-72
2023/02/02 01:49:47;;;;;;;51.38;6.03;;;4.60;99.90;;;;;;5055164;28;20494;-71
2023/02/02 01:52:16;;;;;;;62.35;6.82;;;4.50;99.90;;;;;;5055379;28;20025;-72
2023/02/02 01:54:46;;;;;;;49.53;6.35;;;4.50;99.90;;;;;;5047650;28;20025;-72
2023/02/02 01:57:18;;;;;;;57.80;6.25;;;4.50;99.90;;;;;;5053570;28;20117;-72
2023/02/02 01:59:46;;;;;;;74.47;9.25;;;4.50;99.90;;;;;;5055260;28;20501;-72
2023/02/02 02:02:12;;;;;;;69.45;8.40;;;4.50;99.90;;;;;;5055162;28;20029;-72
2023/02/02 02:04:37;;;;;;;47.33;6.65;;;4.60;99.90;;;;;;5055098;28;20021;-72
2023/02/02 02:07:04;;;;;;;51.72;8.63;;;4.60;99.90;;;;;;5054635;28;20029;-72
2023/02/02 02:09:30;;;;;;;45.88;7.15;;;4.50;99.90;;;;;;5055249;28;20494;-72
2023/02/02 02:11:56;;;;;;;58.60;7.05;;;4.50;99.90;;;;;;5053764;28;20025;-72
2023/02/02 02:17:43;;;;;;;52.72;6.35;;;4.40;99.90;;;;;;5054966;28;20032;-72
2023/02/02 02:26:54;;;;;;;48.45;6.15;;;4.40;99.90;;;;;;5054889;28;20080;-72
2023/02/02 02:30:05;;;;;;;58.45;7.32;;;4.40;99.90;;;;;;5053120;28;20021;-72
2023/02/02 02:32:43;;;;;;;68.22;5.60;;;4.50;99.90;;;;;;5035019;28;20025;-72
2023/02/02 02:35:39;;;;;;;44.97;6.13;;;4.40;99.90;;;;;;5034589;28;20083;-72
2023/02/02 02:38:20;;;;;;;63.92;6.18;;;4.50;99.90;;;;;;5034003;28;20487;-72
2023/02/02 02:40:56;;;;;;;51.15;5.50;;;4.40;99.90;;;;;;5034688;28;20460;-72
2023/02/02 02:43:34;;;;;;;54.10;6.65;;;4.30;99.90;;;;;;5045201;28;20202;-72
2023/02/02 02:46:00;;;;;;;64.55;6.40;;;4.30;99.90;;;;;;5054394;28;20437;-72
2023/02/02 02:48:28;;;;;;;67.15;6.07;;;4.40;99.90;;;;;;5054661;28;20075;-72
2023/02/02 02:50:53;;;;;;;48.00;5.60;;;4.30;99.90;;;;;;5054354;28;20434;-72
2023/02/02 02:53:23;;;;;;;52.75;4.95;;;4.20;99.90;;;;;;5052131;28;20017;-72
2023/02/02 02:56:24;;;;;;;46.05;4.50;;;4.20;99.90;;;;;;5034406;28;20064;-72
2023/02/02 02:58:54;;;;;;;64.55;4.65;;;4.30;99.90;;;;;;5039085;28;20031;-72
2023/02/02 03:01:27;;;;;;;39.03;5.15;;;4.30;99.90;;;;;;5054215;28;20108;-72
2023/02/02 03:04:32;;;;;;;28.30;3.83;;;4.30;99.90;;;;;;5053967;28;20021;-72
2023/02/02 03:07:06;;;;;;;24.25;3.03;;;4.30;99.90;;;;;;5053851;28;20487;-72
2023/02/02 03:09:35;;;;;;;33.35;4.85;;;4.20;99.90;;;;;;5053993;28;20047;-72
2023/02/02 03:12:02;;;;;;;37.60;4.55;;;4.20;99.90;;;;;;5053857;28;20056;-72
2023/02/02 03:14:28;;;;;;;34.22;3.75;;;4.20;99.90;;;;;;5053584;28;20017;-72
2023/02/02 03:16:53;;;;;;;32.20;5.00;;;4.20;99.90;;;;;;5053758;28;20103;-72
2023/02/02 03:19:20;;;;;;;31.90;4.22;;;4.20;99.90;;;;;;5053704;28;20094;-72
2023/02/02 03:21:45;;;;;;;37.60;3.80;;;4.20;99.90;;;;;;5054042;28;20483;-72
2023/02/02 03:24:11;;;;;;;28.77;3.90;;;4.20;99.90;;;;;;5053488;28;20086;-72
2023/02/02 03:26:36;;;;;;;28.02;4.30;;;4.20;99.90;;;;;;5053400;28;20024;-72
2023/02/02 03:29:02;;;;;;;27.13;3.95;;;4.20;99.90;;;;;;5053491;28;20017;-72
2023/02/02 03:31:29;;;;;;;32.33;3.38;;;4.20;99.90;;;;;;5053918;28;20096;-72
2023/02/02 03:33:55;;;;;;;45.15;4.82;;;4.20;99.90;;;;;;5053322;28;20033;-72
2023/02/02 03:36:21;;;;;;;32.20;4.53;;;4.30;99.90;;;;;;5053433;28;20036;-72
2023/02/02 03:38:47;;;;;;;37.75;4.90;;;4.40;99.90;;;;;;5053203;28;20028;-72
2023/02/02 03:41:12;;;;;;;55.13;5.57;;;4.40;99.90;;;;;;5053436;28;20040;-72
2023/02/02 03:43:38;;;;;;;39.42;4.28;;;4.50;99.90;;;;;;5053346;28;20108;-71
2023/02/02 03:46:04;;;;;;;34.47;4.10;;;4.50;99.90;;;;;;5053235;28;20029;-72
2023/02/02 03:48:33;;;;;;;31.55;4.38;;;4.60;99.90;;;;;;5053353;28;20025;-72
2023/02/02 03:50:59;;;;;;;54.20;6.03;;;4.60;99.90;;;;;;5053304;28;20472;-72
2023/02/02 03:53:24;;;;;;;34.90;4.60;;;4.60;99.90;;;;;;5053358;28;20024;-72
2023/02/02 03:55:50;;;;;;;44.95;4.80;;;4.60;99.90;;;;;;5053254;28;20084;-72
2023/02/02 03:58:16;;;;;;;44.10;4.72;;;4.50;99.90;;;;;;5053388;28;20108;-72
2023/02/02 04:00:42;;;;;;;29.25;4.13;;;4.50;99.90;;;;;;5053072;28;20040;-72
2023/02/02 04:03:07;;;;;;;26.50;3.92;;;4.50;99.90;;;;;;5052966;28;20471;-72
2023/02/02 04:05:33;;;;;;;47.38;5.35;;;4.50;99.90;;;;;;5053397;28;20025;-72
2023/02/02 04:07:58;;;;;;;48.53;4.75;;;4.40;99.90;;;;;;5053063;28;20069;-72
2023/02/02 04:10:24;;;;;;;42.88;3.80;;;4.50;99.90;;;;;;5053023;28;20072;-72
2023/02/02 04:12:49;;;;;;;45.60;5.95;;;4.50;99.90;;;;;;5053098;28;20025;-72
2023/02/02 04:15:15;;;;;;;45.50;4.45;;;4.60;99.90;;;;;;5053204;28;20021;-72
2023/02/02 04:17:41;;;;;;;38.72;4.93;;;4.60;99.90;;;;;;5053230;28;20037;-72
2023/02/02 04:20:07;;;;;;;38.85;4.10;;;4.50;99.90;;;;;;5053056;28;20112;-72
2023/02/02 04:22:33;;;;;;;29.38;4.25;;;4.50;99.90;;;;;;5052527;28;20028;-72
2023/02/02 04:24:58;;;;;;;42.35;4.18;;;4.40;99.90;;;;;;5052879;28;20483;-72
2023/02/02 04:27:24;;;;;;;34.22;4.25;;;4.40;99.90;;;;;;5052546;28;20411;-72
2023/02/02 04:29:50;;;;;;;42.40;3.75;;;4.30;99.90;;;;;;5053165;28;20025;-72
2023/02/02 04:32:16;;;;;;;25.08;4.57;;;4.30;99.90;;;;;;5050040;28;20021;-72
2023/02/02 04:34:42;;;;;;;29.85;2.90;;;4.30;99.90;;;;;;5050170;28;20115;-72
2023/02/02 04:37:08;;;;;;;39.38;3.85;;;4.30;99.90;;;;;;5056629;28;20032;-72
2023/02/02 04:39:34;;;;;;;40.10;3.67;;;4.30;99.90;;;;;;5057024;28;20017;-72
2023/02/02 04:41:59;;;;;;;30.58;4.38;;;4.30;99.90;;;;;;5056717;28;20029;-72
2023/02/02 04:44:25;;;;;;;29.05;3.05;;;4.30;99.90;;;;;;5056397;28;20025;-72
2023/02/02 04:46:51;;;;;;;27.52;4.10;;;4.20;99.90;;;;;;5056717;28;20029;-72
2023/02/02 04:49:16;;;;;;;29.27;4.15;;;4.20;99.90;;;;;;5056612;28;20063;-72
2023/02/02 04:51:42;;;;;;;31.95;3.20;;;4.20;99.90;;;;;;5056505;28;20048;-72
2023/02/02 04:54:08;;;;;;;31.77;3.28;;;4.20;99.90;;;;;;5056467;28;20490;-72
2023/02/02 04:56:34;;;;;;;30.50;4.70;;;4.30;99.90;;;;;;5055056;28;20025;-72
2023/02/02 04:58:59;;;;;;;32.38;3.50;;;4.30;99.90;;;;;;5056410;28;20021;-72
2023/02/02 05:01:25;;;;;;;42.03;5.97;;;4.30;99.90;;;;;;5056204;28;20104;-72
2023/02/02 05:03:51;;;;;;;37.42;3.60;;;4.40;99.90;;;;;;5056701;28;20106;-72
2023/02/02 05:06:18;;;;;;;34.10;3.47;;;4.50;99.90;;;;;;5044840;28;20389;-71
2023/02/02 05:08:44;;;;;;;37.05;4.07;;;4.50;99.90;;;;;;5036192;28;20076;-72
2023/02/02 05:11:15;;;;;;;25.27;4.78;;;4.50;99.90;;;;;;5044619;28;20025;-72
2023/02/02 05:13:46;;;;;;;40.65;5.97;;;4.60;99.90;;;;;;5056280;28;20021;-72
2023/02/02 05:16:11;;;;;;;43.00;7.15;;;4.60;99.90;;;;;;5055906;28;20505;-72
2023/02/02 05:18:37;;;;;;;44.47;8.45;;;4.50;99.90;;;;;;5055893;28;20116;-72
2023/02/02 05:21:02;;;;;;;38.83;6.97;;;4.50;99.90;;;;;;5055878;28;20037;-72
2023/02/02 05:23:30;;;;;;;30.63;5.15;;;4.50;99.90;;;;;;5055908;28;20021;-72
2023/02/02 05:25:56;;;;;;;35.65;4.95;;;4.40;99.90;;;;;;5055774;28;20394;-72
2023/02/02 05:28:22;;;;;;;34.65;4.50;;;4.40;99.90;;;;;;5055849;28;20025;-72
2023/02/02 05:30:48;;;;;;;30.67;3.90;;;4.30;99.90;;;;;;5071435;28;20364;-72
2023/02/02 05:33:15;;;;;;;36.00;4.28;;;4.20;99.90;;;;;;5055426;28;20082;-72
2023/02/02 05:35:40;;;;;;;27.27;4.25;;;4.20;99.90;;;;;;5049882;28;20079;-72
2023/02/02 05:38:06;;;;;;;29.52;4.03;;;4.20;99.90;;;;;;5036336;28;20053;-71
2023/02/02 05:40:31;;;;;;;21.75;4.72;;;4.10;99.90;;;;;;5038665;28;20069;-71
2023/02/02 05:42:57;;;;;;;21.95;3.00;;;4.00;99.90;;;;;;5055587;28;20122;-71
2023/02/02 05:45:23;;;;;;;27.50;3.45;;;3.90;99.90;;;;;;5055362;28;20459;-72
2023/02/02 05:47:48;;;;;;;35.15;4.20;;;3.90;99.90;;;;;;5055316;28;20035;-71
2023/02/02 05:50:14;;;;;;;29.10;4.07;;;3.90;99.90;;;;;;5055497;28;20387;-72
2023/02/02 05:52:42;;;;;;;21.73;3.00;;;3.90;99.90;;;;;;5054347;28;20103;-72
2023/02/02 05:55:08;;;;;;;17.50;3.55;;;3.90;99.90;;;;;;5052063;28;20036;-71
2023/02/02 05:57:34;;;;;;;45.58;8.95;;;3.90;99.90;;;;;;5035373;28;20022;-72
2023/02/02 06:00:00;;;;;;;29.73;5.22;;;3.90;99.90;;;;;;5035424;28;20087;-71
2023/02/02 06:02:25;;;;;;;39.35;3.63;;;3.90;99.90;;;;;;5053192;28;20029;-72
2023/02/02 06:04:51;;;;;;;28.05;3.63;;;3.90;99.90;;;;;;5055100;28;20031;-71
2023/02/02 06:07:16;;;;;;;33.63;4.97;;;3.90;99.90;;;;;;5054980;28;20117;-71
2023/02/02 06:09:42;;;;;;;38.03;4.95;;;3.80;99.90;;;;;;5055512;28;20029;-72
2023/02/02 06:12:07;;;;;;;38.10;6.18;;;3.80;99.90;;;;;;5055043;28;20145;-71
2023/02/02 06:14:33;;;;;;;37.63;10.85;;;3.70;99.90;;;;;;5054914;28;20374;-72
2023/02/02 06:16:58;;;;;;;29.40;3.08;;;3.70;99.90;;;;;;5040082;28;20030;-72
2023/02/02 06:19:24;;;;;;;31.83;2.38;;;3.60;99.90;;;;;;5053144;28;20029;-72
2023/02/02 06:21:49;;;;;;;33.92;4.28;;;3.50;99.90;;;;;;5054903;28;20483;-72
2023/02/02 06:24:15;;;;;;;33.05;3.67;;;3.50;99.90;;;;;;5054782;28;20470;-71
2023/02/02 06:26:41;;;;;;;17.80;2.50;;;3.40;99.90;;;;;;5054640;28;20106;-72
2023/02/02 06:29:06;;;;;;;46.80;6.80;;;3.40;99.90;;;;;;5054317;28;20035;-72
2023/02/02 06:31:32;;;;;;;45.55;5.18;;;3.40;99.90;;;;;;5054621;28;20013;-72
2023/02/02 06:33:58;;;;;;;35.20;3.33;;;3.40;99.90;;;;;;5054489;28;20368;-71
2023/02/02 06:36:26;;;;;;;26.48;4.78;;;3.30;99.90;;;;;;5043114;28;20053;-71
2023/02/02 06:38:54;;;;;;;32.90;4.13;;;3.30;99.90;;;;;;5034554;28;20040;-71
2023/02/02 06:41:20;;;;;;;36.25;5.07;;;3.30;99.90;;;;;;5034612;28;20388;-71
2023/02/02 06:43:47;;;;;;;31.38;2.72;;;3.30;99.90;;;;;;5034518;28;20033;-72
2023/02/02 06:46:13;;;;;;;32.80;4.13;;;3.20;99.90;;;;;;5047020;28;20025;-71
2023/02/02 06:48:38;;;;;;;51.30;14.13;;;3.20;99.90;;;;;;5053206;28;20017;-72
2023/02/02 06:51:04;;;;;;;24.25;5.13;;;3.20;99.90;;;;;;5054341;28;20430;-72
2023/02/02 06:53:31;;;;;;;90.25;33.15;;;3.30;99.90;;;;;;5053491;28;20033;-71
2023/02/02 06:55:59;;;;;;;75.15;13.82;;;3.30;99.90;;;;;;5054248;28;20033;-72
2023/02/02 06:58:25;;;;;;;149.63;24.17;;;3.40;99.90;;;;;;5054207;28;20047;-71
2023/02/02 07:00:50;;;;;;;42.72;6.93;;;3.60;99.90;;;;;;5054020;28;20033;-71
2023/02/02 07:03:16;;;;;;;48.17;7.03;;;3.60;99.90;;;;;;5054057;28;20413;-71
2023/02/02 07:05:42;;;;;;;36.20;4.72;;;3.60;99.90;;;;;;5054036;28;20025;-71
2023/02/02 07:08:08;;;;;;;31.83;4.63;;;3.70;99.90;;;;;;5052798;28;20382;-70
2023/02/02 07:10:35;;;;;;;38.20;4.82;;;3.70;99.90;;;;;;5053331;28;20013;-71
2023/02/02 07:13:00;;;;;;;49.30;8.93;;;3.70;99.90;;;;;;5053888;28;20388;-70
2023/02/02 07:15:26;;;;;;;21.55;3.95;;;3.70;99.90;;;;;;5052443;28;20025;-70
2023/02/02 07:17:53;;;;;;;49.17;8.10;;;3.70;99.90;;;;;;5051832;28;20037;-70
2023/02/02 07:20:19;;;;;;;31.58;4.20;;;3.70;99.90;;;;;;5033825;28;20021;-70
2023/02/02 07:22:45;;;;;;;32.60;2.50;;;3.70;99.90;;;;;;5033913;28;20029;-70
2023/02/02 07:25:10;;;;;;;28.27;3.13;;;3.80;99.90;;;;;;5033617;28;20547;-71
2023/02/02 07:27:36;;;;;;;46.42;7.35;;;3.80;99.90;;;;;;5035841;28;20025;-71
2023/02/02 07:30:02;;;;;;;30.00;4.05;;;3.70;99.90;;;;;;5053552;28;20099;-70
2023/02/02 07:32:28;;;;;;;24.52;3.55;;;3.80;99.90;;;;;;5053912;28;20025;-70
2023/02/02 07:34:54;;;;;;;28.13;5.35;;;3.90;99.90;;;;;;5053662;28;20037;-71
2023/02/02 07:37:19;;;;;;;58.78;11.25;;;3.90;99.90;;;;;;5053459;28;20054;-71
2023/02/02 07:39:45;;;;;;;36.85;3.45;;;3.90;99.90;;;;;;5053584;28;20057;-71
2023/02/02 07:42:11;;;;;;;23.73;2.88;;;4.00;99.90;;;;;;5052414;28;20070;-72
2023/02/02 07:44:37;;;;;;;26.85;4.93;;;4.00;99.90;;;;;;5050810;28;20096;-72
2023/02/02 07:47:03;;;;;;;38.15;4.38;;;3.90;99.90;;;;;;5043943;28;20573;-72
2023/02/02 07:49:31;;;;;;;31.60;6.30;;;4.00;99.90;;;;;;5052800;28;20024;-72
2023/02/02 07:51:57;;;;;;;34.95;5.78;;;4.10;99.90;;;;;;5053265;28;20032;-72
2023/02/02 07:54:23;;;;;;;34.83;4.90;;;4.10;99.90;;;;;;5053046;28;20395;-72
2023/02/02 07:56:48;;;;;;;25.00;4.53;;;4.10;99.90;;;;;;5052969;28;20029;-72
2023/02/02 07:59:14;;;;;;;23.00;3.88;;;4.10;99.90;;;;;;5053018;28;20045;-71
2023/02/02 08:01:39;;;;;;;48.17;7.40;;;4.10;99.90;;;;;;5051756;28;20033;-71
2023/02/02 08:04:05;;;;;;;45.53;6.30;;;4.20;99.90;;;;;;5052556;28;20031;-71
2023/02/02 08:06:34;;;;;;;28.02;4.63;;;4.30;99.90;;;;;;5046654;28;20064;-71
2023/02/02 08:09:01;;;;;;;32.65;5.70;;;4.40;99.90;;;;;;5052904;28;20013;-71
2023/02/02 08:11:27;;;;;;;37.97;5.93;;;4.40;99.90;;;;;;5052916;28;20104;-72
2023/02/02 08:13:56;;;;;;;40.85;6.53;;;4.40;99.90;;;;;;5052838;28;20059;-71
2023/02/02 08:16:22;;;;;;;37.05;5.10;;;4.30;99.90;;;;;;5049359;28;20562;-72
2023/02/02 08:18:48;;;;;;;30.50;5.65;;;4.30;99.90;;;;;;5050514;28;20032;-72
2023/02/02 08:21:15;;;;;;;25.30;5.25;;;4.30;99.90;;;;;;5044951;28;20453;-71
2023/02/02 08:23:41;;;;;;;24.00;4.82;;;4.40;99.90;;;;;;5052579;28;20548;-71
2023/02/02 08:26:21;;;;;;;26.98;4.00;;;4.50;99.90;;;;;;5052791;28;20108;-71
2023/02/02 08:28:53;;;;;;;22.50;3.92;;;4.60;99.90;;;;;;5052953;28;20017;-72
2023/02/02 08:31:21;;;;;;;36.08;4.88;;;4.60;99.90;;;;;;5053159;28;20372;-71
2023/02/02 08:33:48;;;;;;;28.17;5.40;;;4.80;99.90;;;;;;5052509;28;20033;-71
2023/02/02 08:36:18;;;;;;;33.72;5.05;;;4.90;99.90;;;;;;5052824;28;20040;-71
2023/02/02 08:38:44;;;;;;;62.47;10.43;;;4.90;99.90;;;;;;5053144;28;20013;-71
2023/02/02 08:41:13;;;;;;;44.42;6.70;;;5.10;99.90;;;;;;5065806;28;20111;-71
2023/02/02 08:43:40;;;;;;;37.47;3.75;;;5.20;99.90;;;;;;5052367;28;20032;-71
2023/02/02 08:46:07;;;;;;;21.95;4.32;;;5.20;99.90;;;;;;5052345;28;20500;-72
2023/02/02 08:48:34;;;;;;;24.58;4.13;;;5.30;99.90;;;;;;5052674;28;20128;-72
2023/02/02 08:50:59;;;;;;;38.17;5.75;;;5.30;99.90;;;;;;5053021;28;20075;-71
2023/02/02 08:53:25;;;;;;;22.83;3.83;;;5.50;99.90;;;;;;5052423;28;20021;-71
2023/02/02 08:55:59;;;;;;;31.05;4.50;;;5.60;99.90;;;;;;5052275;28;20094;-71
2023/02/02 08:58:25;;;;;;;30.67;4.88;;;5.50;99.90;;;;;;5052194;28;20025;-72
2023/02/02 09:00:51;;;;;;;17.17;3.17;;;5.40;99.90;;;;;;5052692;28;20138;-72
2023/02/02 09:03:16;;;;;;;32.63;3.15;;;5.40;99.90;;;;;;5052165;28;20140;-72
2023/02/02 09:05:43;;;;;;;22.20;3.67;;;5.30;99.90;;;;;;5052199;28;20067;-72
2023/02/02 09:08:08;;;;;;;22.48;3.40;;;5.20;99.90;;;;;;5052585;28;20023;-72
2023/02/02 09:10:37;;;;;;;14.98;2.85;;;5.20;99.90;;;;;;5052084;28;20100;-72
2023/02/02 09:13:03;;;;;;;27.75;3.70;;;5.20;99.90;;;;;;5052552;28;20127;-72
2023/02/02 09:15:29;;;;;;;29.55;3.75;;;5.30;99.90;;;;;;5052548;28;20033;-73
2023/02/02 09:17:55;;;;;;;24.00;3.53;;;5.40;99.90;;;;;;5055817;28;20033;-72
2023/02/02 09:20:21;;;;;;;16.33;3.00;;;5.50;99.90;;;;;;5060701;28;20025;-73
2023/02/02 09:22:47;;;;;;;27.13;4.70;;;5.60;99.90;;;;;;5075794;28;20487;-72
2023/02/02 09:25:12;;;;;;;19.15;3.40;;;5.50;99.90;;;;;;5075365;28;20033;-73
2023/02/02 09:27:39;;;;;;;27.70;3.65;;;5.50;99.90;;;;;;5070635;28;20017;-73
2023/02/02 09:30:08;;;;;;;16.55;2.28;;;5.60;99.90;;;;;;5055854;28;20021;-73
2023/02/02 09:32:34;;;;;;;19.55;2.55;;;5.70;99.90;;;;;;5055789;28;20029;-73
2023/02/02 09:35:00;;;;;;;29.15;2.90;;;5.80;99.90;;;;;;5055194;28;20025;-71
2023/02/02 09:37:26;;;;;;;38.38;3.65;;;5.70;99.90;;;;;;5052978;28;20406;-72
2023/02/02 09:39:52;;;;;;;23.88;3.15;;;5.70;99.90;;;;;;5061580;28;20509;-73
2023/02/02 09:42:33;;;;;;;21.42;2.55;;;5.70;99.90;;;;;;5035724;28;20180;-72
2023/02/02 09:45:21;;;;;;;25.60;3.80;;;5.70;99.90;;;;;;5041155;28;20028;-72
2023/02/02 09:47:51;;;;;;;21.00;3.15;;;5.80;99.90;;;;;;5051933;28;20032;-73
2023/02/02 09:50:42;;;;;;;25.63;3.47;;;5.90;99.90;;;;;;5035446;28;20018;-72
2023/02/02 09:53:13;;;;;;;26.25;3.58;;;6.00;99.90;;;;;;5035359;28;20049;-73
2023/02/02 09:55:41;;;;;;;22.40;3.30;;;6.00;99.90;;;;;;5035384;28;20507;-73
2023/02/02 09:58:31;;;;;;;24.38;2.45;;;6.00;99.90;;;;;;5041466;28;20016;-73
2023/02/02 10:01:16;;;;;;;26.38;3.28;;;6.10;99.90;;;;;;5055302;28;20104;-72
2023/02/02 10:04:32;;;;;;;23.75;2.38;;;6.20;99.90;;;;;;5054729;28;20031;-73
2023/02/02 10:07:06;;;;;;;31.85;3.95;;;6.20;99.90;;;;;;5036878;28;20048;-73
2023/02/02 10:09:46;;;;;;;27.10;3.10;;;6.20;99.90;;;;;;5053927;28;20428;-73
2023/02/02 10:12:15;;;;;;;15.27;2.75;;;6.30;99.90;;;;;;5055120;28;20513;-72
2023/02/02 10:15:11;;;;;;;17.70;2.13;;;6.30;99.90;;;;;;5054782;28;20104;-73
2023/02/02 10:17:40;;;;;;;25.75;3.53;;;6.30;99.90;;;;;;5055123;28;20021;-72
2023/02/02 10:20:32;;;;;;;19.10;2.60;;;6.40;99.90;;;;;;5055675;28;20024;-73
2023/02/02 10:23:08;;;;;;;14.13;2.10;;;6.50;99.90;;;;;;5035264;28;20035;-73
2023/02/02 10:25:34;;;;;;;18.83;2.47;;;6.60;99.90;;;;;;5054527;28;20035;-72
2023/02/02 10:28:10;;;;;;;15.77;2.10;;;6.50;99.90;;;;;;5053396;28;20021;-73
2023/02/02 10:30:53;;;;;;;25.85;3.70;;;6.50;99.90;;;;;;5054612;28;20025;-73
2023/02/02 10:33:38;;;;;;;12.70;2.07;;;6.40;99.90;;;;;;5069768;28;20087;-73
2023/02/02 10:36:18;;;;;;;8.45;2.13;;;6.50;99.90;;;;;;5054650;28;20491;-73
2023/02/02 10:39:07;;;;;;;23.77;4.10;;;6.60;99.90;;;;;;5054063;28;20029;-73
2023/02/02 10:41:40;;;;;;;18.88;2.67;;;6.70;99.90;;;;;;5054547;28;20017;-72
2023/02/02 10:44:32;;;;;;;26.83;2.63;;;6.80;99.90;;;;;;5054374;28;20061;-73
2023/02/02 10:47:00;;;;;;;24.63;3.17;;;6.90;99.90;;;;;;5054558;28;20029;-73
2023/02/02 10:49:32;;;;;;;16.85;2.35;;;7.10;99.90;;;;;;5054052;28;20086;-73
2023/02/02 10:52:05;;;;;;;12.15;1.90;;;7.10;99.90;;;;;;5054244;28;20031;-72
2023/02/02 10:54:37;;;;;;;31.50;3.30;;;7.10;99.90;;;;;;5054399;28;20104;-73
2023/02/02 10:57:06;;;;;;;23.23;2.40;;;7.20;99.90;;;;;;5054316;28;20025;-73
2023/02/02 10:59:43;;;;;;;16.73;3.20;;;7.20;99.90;;;;;;5053941;28;20024;-72
2023/02/02 11:02:10;;;;;;;19.75;2.55;;;7.30;99.90;;;;;;5054208;28;20109;-73
2023/02/02 11:07:20;;;;;;;8.38;1.88;;;7.60;99.90;;;;;;5054088;28;20529;-73
2023/02/02 11:09:45;;;;;;;23.98;3.60;;;7.70;99.90;;;;;;5052578;28;20025;-73
2023/02/02 11:12:31;;;;;;;21.05;2.38;;;7.80;99.90;;;;;;5053948;28;20440;-73
2023/02/02 11:15:01;;;;;;;12.85;1.83;;;8.00;99.90;;;;;;5053974;28;20091;-73
2023/02/02 11:17:28;;;;;;;16.75;2.30;;;8.00;99.90;;;;;;5053454;28;20035;-72
2023/02/02 11:19:55;;;;;;;15.20;2.90;;;8.20;99.90;;;;;;5053761;28;20062;-72
2023/02/02 11:22:29;;;;;;;14.50;2.47;;;8.40;99.90;;;;;;5053535;28;20021;-72
2023/02/02 11:24:58;;;;;;;18.58;2.42;;;8.30;99.90;;;;;;5053768;28;20111;-72
2023/02/02 11:27:38;;;;;;;17.85;2.20;;;8.30;99.90;;;;;;5053246;28;20048;-73
2023/02/02 11:30:32;;;;;;;24.63;3.70;;;8.20;99.90;;;;;;5034000;28;20020;-72
2023/02/02 11:32:57;;;;;;;21.58;2.03;;;8.00;99.90;;;;;;5032135;28;20028;-72
2023/02/02 11:35:30;;;;;;;13.82;2.83;;;8.00;99.90;;;;;;5033332;28;20037;-72
2023/02/02 11:38:09;;;;;;;14.77;2.20;;;8.10;99.90;;;;;;5039058;28;20107;-72
2023/02/02 11:40:40;;;;;;;16.75;2.33;;;8.10;99.90;;;;;;5053224;28;20416;-72
2023/02/02 11:43:21;;;;;;;18.98;2.55;;;8.00;99.90;;;;;;5053498;28;20025;-72
2023/02/02 11:45:57;;;;;;;15.65;2.42;;;8.00;99.90;;;;;;5053399;28;20107;-72
2023/02/02 11:48:28;;;;;;;15.27;2.05;;;7.90;99.90;;;;;;5052979;28;20060;-72
2023/02/02 11:50:56;;;;;;;29.02;2.60;;;7.80;99.90;;;;;;5053226;28;20021;-72
2023/02/02 11:53:45;;;;;;;10.60;2.10;;;7.60;99.90;;;;;;5053364;28;20029;-72
2023/02/02 11:56:26;;;;;;;9.40;1.48;;;7.50;99.90;;;;;;5053110;28;20025;-72
2023/02/02 11:58:58;;;;;;;21.02;3.15;;;7.40;99.90;;;;;;5053437;28;20040;-72
2023/02/02 12:01:33;;;;;;;20.30;2.45;;;7.30;99.90;;;;;;5053170;28;20024;-72
2023/02/02 12:04:20;;;;;;;15.75;2.65;;;7.30;99.90;;;;;;5053017;28;20048;-73
2023/02/02 12:06:46;;;;;;;16.42;2.80;;;7.30;99.90;;;;;;5053022;28;20100;-72
2023/02/02 12:09:17;;;;;;;20.75;2.20;;;7.20;99.90;;;;;;5048242;28;20105;-72
2023/02/02 12:12:02;;;;;;;14.90;2.30;;;7.10;99.90;;;;;;5049792;28;20013;-73
2023/02/02 12:14:47;;;;;;;15.20;1.98;;;7.10;99.90;;;;;;5052607;28;20025;-72
2023/02/02 12:17:31;;;;;;;16.92;2.15;;;7.20;99.90;;;;;;5053455;28;20033;-73
2023/02/02 12:20:06;;;;;;;11.15;1.90;;;7.30;99.90;;;;;;5052924;28;20044;-73
2023/02/02 12:22:59;;;;;;;17.70;2.58;;;7.50;99.90;;;;;;5052807;28;20498;-72
2023/02/02 12:25:30;;;;;;;12.48;2.35;;;7.70;99.90;;;;;;5052487;28;20510;-72
2023/02/02 12:28:05;;;;;;;21.60;2.22;;;8.00;99.90;;;;;;5052982;28;20060;-73
2023/02/02 12:30:38;;;;;;;20.27;2.83;;;8.40;99.90;;;;;;5052961;28;20017;-72
2023/02/02 12:33:15;;;;;;;14.02;2.20;;;8.50;99.90;;;;;;5052576;28;20483;-72
2023/02/02 12:36:11;;;;;;;9.60;1.77;;;8.50;99.90;;;;;;5052776;28;20033;-72
2023/02/02 12:38:48;;;;;;;14.05;2.40;;;8.40;99.90;;;;;;5036067;28;20369;-72
2023/02/02 12:41:38;;;;;;;17.42;2.25;;;8.30;99.90;;;;;;5032681;28;20365;-72
2023/02/02 12:44:12;;;;;;;12.18;2.20;;;8.40;99.90;;;;;;5048312;28;20032;-73
2023/02/02 12:46:56;;;;;;;13.75;2.38;;;8.50;99.90;;;;;;5053399;28;20029;-72
2023/02/02 12:49:40;;;;;;;11.82;1.80;;;8.40;99.90;;;;;;5052653;28;20112;-72
2023/02/02 12:52:18;;;;;;;9.63;2.33;;;8.30;99.90;;;;;;5055143;28;20120;-72
2023/02/02 12:55:03;;;;;;;22.90;2.50;;;8.40;99.90;;;;;;5056119;28;20389;-73
2023/02/02 12:57:32;;;;;;;14.90;2.30;;;8.40;99.90;;;;;;5056893;28;20021;-72
2023/02/02 13:00:22;;;;;;;11.40;1.92;;;8.50;99.90;;;;;;5055954;28;20100;-72
2023/02/02 13:03:02;;;;;;;11.85;1.63;;;8.50;99.90;;;;;;5036621;28;20037;-72
2023/02/02 13:06:00;;;;;;;15.10;1.90;;;8.50;99.90;;;;;;5056027;28;20059;-73
2023/02/02 13:08:31;;;;;;;18.45;1.70;;;8.50;99.90;;;;;;5053065;28;20029;-72
2023/02/02 13:11:05;;;;;;;22.90;2.38;;;8.40;99.90;;;;;;5054807;28;20454;-72
2023/02/02 13:13:37;;;;;;;16.02;3.42;;;8.20;99.90;;;;;;5056448;28;20028;-72